sensor_id;sensor_type;location;lat;lon;timestamp;P1;durP1;ratioP1;P2;durP2;ratioP2
41568;SDS011;27283;52.504;13.358;2023-09-30T00:00:34;9.70;;;2.00;;
41568;SDS011;27283;52.504;13.358;2023-09-30T00:03:26;8.73;;;2.03;;
41568;SDS011;27283;52.504;13.358;2023-09-30T00:06:01;9.27;;;2.25;;
41568;SDS011;27283;52.504;13.358;2023-09-30T00:08:33;7.35;;;2.05;;
41568;SDS011;27283;52.504;13.358;2023-09-30T00:11:07;10.20;;;2.30;;
41568;SDS011;27283;52.504;13.358;2023-09-30T00:13:39;9.65;;;2.25;;
41568;SDS011;27283;52.504;13.358;2023-09-30T00:16:10;6.78;;;2.35;;
41568;SDS011;27283;52.504;13.358;2023-09-30T00:18:45;9.77;;;2.60;;
41568;SDS011;27283;52.504;13.358;2023-09-30T00:21:20;13.57;;;2.30;;
41568;SDS011;27283;52.504;13.358;2023-09-30T00:23:53;8.38;;;2.05;;
41568;SDS011;27283;52.504;13.358;2023-09-30T00:26:25;14.68;;;2.90;;
41568;SDS011;27283;52.504;13.358;2023-09-30T00:28:58;11.40;;;2.40;;
41568;SDS011;27283;52.504;13.358;2023-09-30T00:31:35;15.57;;;2.83;;
41568;SDS011;27283;52.504;13.358;2023-09-30T00:34:10;9.82;;;2.72;;
41568;SDS011;27283;52.504;13.358;2023-09-30T00:36:45;13.82;;;2.53;;
41568;SDS011;27283;52.504;13.358;2023-09-30T00:39:19;11.27;;;2.67;;
41568;SDS011;27283;52.504;13.358;2023-09-30T00:41:51;12.52;;;2.95;;
41568;SDS011;27283;52.504;13.358;2023-09-30T00:44:23;9.40;;;2.33;;
41568;SDS011;27283;52.504;13.358;2023-09-30T00:46:55;12.80;;;2.88;;
41568;SDS011;27283;52.504;13.358;2023-09-30T00:49:28;11.20;;;2.72;;
41568;SDS011;27283;52.504;13.358;2023-09-30T00:52:03;12.18;;;2.58;;
41568;SDS011;27283;52.504;13.358;2023-09-30T00:57:35;9.52;;;2.80;;
41568;SDS011;27283;52.504;13.358;2023-09-30T01:00:10;9.05;;;2.70;;
41568;SDS011;27283;52.504;13.358;2023-09-30T01:02:46;12.68;;;2.63;;
41568;SDS011;27283;52.504;13.358;2023-09-30T01:05:19;9.15;;;2.83;;
41568;SDS011;27283;52.504;13.358;2023-09-30T01:07:53;10.95;;;2.80;;
41568;SDS011;27283;52.504;13.358;2023-09-30T01:10:26;12.63;;;2.58;;
41568;SDS011;27283;52.504;13.358;2023-09-30T01:12:58;13.65;;;2.95;;
41568;SDS011;27283;52.504;13.358;2023-09-30T01:15:31;12.55;;;2.90;;
41568;SDS011;27283;52.504;13.358;2023-09-30T01:18:04;15.13;;;2.90;;
41568;SDS011;27283;52.504;13.358;2023-09-30T01:20:37;16.73;;;2.70;;
41568;SDS011;27283;52.504;13.358;2023-09-30T01:23:12;10.80;;;3.10;;
41568;SDS011;27283;52.504;13.358;2023-09-30T01:25:44;9.23;;;2.28;;
41568;SDS011;27283;52.504;13.358;2023-09-30T01:28:18;9.48;;;2.58;;
41568;SDS011;27283;52.504;13.358;2023-09-30T01:30:50;15.70;;;3.10;;
41568;SDS011;27283;52.504;13.358;2023-09-30T01:33:22;13.20;;;2.97;;
41568;SDS011;27283;52.504;13.358;2023-09-30T01:35:55;12.13;;;3.30;;
41568;SDS011;27283;52.504;13.358;2023-09-30T01:38:32;18.83;;;3.15;;
41568;SDS011;27283;52.504;13.358;2023-09-30T01:41:08;14.02;;;2.72;;
41568;SDS011;27283;52.504;13.358;2023-09-30T01:43:46;20.23;;;3.58;;
41568;SDS011;27283;52.504;13.358;2023-09-30T01:46:19;16.52;;;3.28;;
41568;SDS011;27283;52.504;13.358;2023-09-30T01:48:51;17.92;;;3.60;;
41568;SDS011;27283;52.504;13.358;2023-09-30T01:51:24;11.90;;;3.15;;
41568;SDS011;27283;52.504;13.358;2023-09-30T01:53:59;17.90;;;3.67;;
41568;SDS011;27283;52.504;13.358;2023-09-30T01:56:32;17.70;;;3.67;;
41568;SDS011;27283;52.504;13.358;2023-09-30T01:59:05;25.08;;;3.85;;
41568;SDS011;27283;52.504;13.358;2023-09-30T02:01:38;15.73;;;3.50;;
41568;SDS011;27283;52.504;13.358;2023-09-30T02:04:10;23.63;;;3.88;;
41568;SDS011;27283;52.504;13.358;2023-09-30T02:06:44;21.05;;;3.60;;
41568;SDS011;27283;52.504;13.358;2023-09-30T02:09:22;15.18;;;3.42;;
41568;SDS011;27283;52.504;13.358;2023-09-30T02:11:57;19.98;;;3.60;;
41568;SDS011;27283;52.504;13.358;2023-09-30T02:14:29;16.58;;;3.88;;
41568;SDS011;27283;52.504;13.358;2023-09-30T02:17:01;22.35;;;4.25;;
41568;SDS011;27283;52.504;13.358;2023-09-30T02:19:33;14.57;;;3.50;;
41568;SDS011;27283;52.504;13.358;2023-09-30T02:22:05;18.42;;;3.40;;
41568;SDS011;27283;52.504;13.358;2023-09-30T02:24:39;19.58;;;3.60;;
41568;SDS011;27283;52.504;13.358;2023-09-30T02:27:12;24.20;;;4.20;;
41568;SDS011;27283;52.504;13.358;2023-09-30T02:29:54;14.07;;;3.95;;
41568;SDS011;27283;52.504;13.358;2023-09-30T02:32:39;17.15;;;3.53;;
41568;SDS011;27283;52.504;13.358;2023-09-30T02:35:14;21.92;;;4.03;;
41568;SDS011;27283;52.504;13.358;2023-09-30T02:37:47;26.63;;;4.18;;
41568;SDS011;27283;52.504;13.358;2023-09-30T02:40:23;19.88;;;3.78;;
41568;SDS011;27283;52.504;13.358;2023-09-30T02:42:55;21.88;;;4.20;;
41568;SDS011;27283;52.504;13.358;2023-09-30T02:45:27;15.93;;;3.90;;
41568;SDS011;27283;52.504;13.358;2023-09-30T02:48:00;23.92;;;4.53;;
41568;SDS011;27283;52.504;13.358;2023-09-30T02:50:32;16.05;;;3.63;;
41568;SDS011;27283;52.504;13.358;2023-09-30T02:53:04;20.20;;;4.10;;
41568;SDS011;27283;52.504;13.358;2023-09-30T02:55:39;16.50;;;4.28;;
41568;SDS011;27283;52.504;13.358;2023-09-30T02:58:11;22.88;;;4.35;;
41568;SDS011;27283;52.504;13.358;2023-09-30T03:00:44;17.42;;;4.00;;
41568;SDS011;27283;52.504;13.358;2023-09-30T03:03:22;20.52;;;4.32;;
41568;SDS011;27283;52.504;13.358;2023-09-30T03:05:59;23.90;;;4.40;;
41568;SDS011;27283;52.504;13.358;2023-09-30T03:08:34;21.42;;;4.32;;
41568;SDS011;27283;52.504;13.358;2023-09-30T03:11:09;20.75;;;4.43;;
41568;SDS011;27283;52.504;13.358;2023-09-30T03:13:41;14.35;;;4.22;;
41568;SDS011;27283;52.504;13.358;2023-09-30T03:16:13;19.77;;;4.50;;
41568;SDS011;27283;52.504;13.358;2023-09-30T03:18:45;23.55;;;3.97;;
41568;SDS011;27283;52.504;13.358;2023-09-30T03:21:17;26.38;;;4.07;;
41568;SDS011;27283;52.504;13.358;2023-09-30T03:23:49;17.95;;;4.30;;
41568;SDS011;27283;52.504;13.358;2023-09-30T03:26:33;18.92;;;4.38;;
41568;SDS011;27283;52.504;13.358;2023-09-30T03:29:10;21.50;;;4.32;;
41568;SDS011;27283;52.504;13.358;2023-09-30T03:31:42;23.58;;;4.57;;
41568;SDS011;27283;52.504;13.358;2023-09-30T03:34:14;24.15;;;4.70;;
41568;SDS011;27283;52.504;13.358;2023-09-30T03:36:45;20.45;;;4.45;;
41568;SDS011;27283;52.504;13.358;2023-09-30T03:39:23;18.33;;;4.63;;
41568;SDS011;27283;52.504;13.358;2023-09-30T03:41:58;22.83;;;4.80;;
41568;SDS011;27283;52.504;13.358;2023-09-30T03:44:31;21.50;;;4.82;;
41568;SDS011;27283;52.504;13.358;2023-09-30T03:47:03;22.05;;;4.75;;
41568;SDS011;27283;52.504;13.358;2023-09-30T03:49:37;21.92;;;4.65;;
41568;SDS011;27283;52.504;13.358;2023-09-30T03:52:20;20.40;;;4.57;;
41568;SDS011;27283;52.504;13.358;2023-09-30T03:54:54;27.13;;;4.82;;
41568;SDS011;27283;52.504;13.358;2023-09-30T03:57:29;15.10;;;4.43;;
41568;SDS011;27283;52.504;13.358;2023-09-30T04:00:04;21.95;;;4.93;;
41568;SDS011;27283;52.504;13.358;2023-09-30T04:02:55;20.65;;;5.13;;
41568;SDS011;27283;52.504;13.358;2023-09-30T04:05:29;23.83;;;4.90;;
41568;SDS011;27283;52.504;13.358;2023-09-30T04:08:07;24.10;;;4.95;;
41568;SDS011;27283;52.504;13.358;2023-09-30T04:10:40;25.27;;;4.65;;
41568;SDS011;27283;52.504;13.358;2023-09-30T04:13:14;23.73;;;4.90;;
41568;SDS011;27283;52.504;13.358;2023-09-30T04:15:49;23.10;;;5.22;;
41568;SDS011;27283;52.504;13.358;2023-09-30T04:18:21;26.85;;;5.18;;
41568;SDS011;27283;52.504;13.358;2023-09-30T04:20:54;24.02;;;5.30;;
41568;SDS011;27283;52.504;13.358;2023-09-30T04:23:29;28.08;;;4.93;;
41568;SDS011;27283;52.504;13.358;2023-09-30T04:26:01;15.73;;;4.53;;
41568;SDS011;27283;52.504;13.358;2023-09-30T04:28:36;22.85;;;4.72;;
41568;SDS011;27283;52.504;13.358;2023-09-30T04:31:08;25.35;;;4.80;;
41568;SDS011;27283;52.504;13.358;2023-09-30T04:33:41;24.35;;;5.22;;
41568;SDS011;27283;52.504;13.358;2023-09-30T04:36:14;19.25;;;5.47;;
41568;SDS011;27283;52.504;13.358;2023-09-30T04:38:46;17.63;;;4.85;;
41568;SDS011;27283;52.504;13.358;2023-09-30T04:41:18;27.88;;;5.25;;
41568;SDS011;27283;52.504;13.358;2023-09-30T04:43:52;27.90;;;5.43;;
41568;SDS011;27283;52.504;13.358;2023-09-30T04:46:25;27.35;;;4.88;;
41568;SDS011;27283;52.504;13.358;2023-09-30T04:48:57;21.60;;;5.40;;
41568;SDS011;27283;52.504;13.358;2023-09-30T04:51:31;21.55;;;4.60;;
41568;SDS011;27283;52.504;13.358;2023-09-30T04:54:03;24.15;;;5.13;;
41568;SDS011;27283;52.504;13.358;2023-09-30T04:56:36;27.42;;;5.40;;
41568;SDS011;27283;52.504;13.358;2023-09-30T04:59:11;25.50;;;4.97;;
41568;SDS011;27283;52.504;13.358;2023-09-30T05:01:43;25.90;;;5.53;;
41568;SDS011;27283;52.504;13.358;2023-09-30T05:04:19;31.73;;;5.57;;
41568;SDS011;27283;52.504;13.358;2023-09-30T05:06:52;30.48;;;6.28;;
41568;SDS011;27283;52.504;13.358;2023-09-30T05:09:24;28.90;;;6.65;;
41568;SDS011;27283;52.504;13.358;2023-09-30T05:11:57;29.10;;;6.20;;
41568;SDS011;27283;52.504;13.358;2023-09-30T05:14:31;24.73;;;5.40;;
41568;SDS011;27283;52.504;13.358;2023-09-30T05:17:04;25.42;;;5.15;;
41568;SDS011;27283;52.504;13.358;2023-09-30T05:19:39;27.17;;;5.90;;
41568;SDS011;27283;52.504;13.358;2023-09-30T05:22:12;21.33;;;6.03;;
41568;SDS011;27283;52.504;13.358;2023-09-30T05:25:02;27.88;;;5.32;;
41568;SDS011;27283;52.504;13.358;2023-09-30T05:27:35;21.90;;;5.07;;
41568;SDS011;27283;52.504;13.358;2023-09-30T05:30:13;22.08;;;5.40;;
41568;SDS011;27283;52.504;13.358;2023-09-30T05:32:48;27.23;;;5.65;;
41568;SDS011;27283;52.504;13.358;2023-09-30T05:35:22;25.40;;;5.10;;
41568;SDS011;27283;52.504;13.358;2023-09-30T05:38:00;28.23;;;5.75;;
41568;SDS011;27283;52.504;13.358;2023-09-30T05:40:34;24.08;;;6.03;;
41568;SDS011;27283;52.504;13.358;2023-09-30T05:43:08;23.25;;;5.28;;
41568;SDS011;27283;52.504;13.358;2023-09-30T05:45:49;21.48;;;5.00;;
41568;SDS011;27283;52.504;13.358;2023-09-30T05:48:28;25.70;;;5.45;;
41568;SDS011;27283;52.504;13.358;2023-09-30T05:51:00;21.48;;;5.50;;
41568;SDS011;27283;52.504;13.358;2023-09-30T05:53:36;22.52;;;5.25;;
41568;SDS011;27283;52.504;13.358;2023-09-30T05:56:09;23.20;;;4.95;;
41568;SDS011;27283;52.504;13.358;2023-09-30T05:58:44;21.48;;;4.93;;
41568;SDS011;27283;52.504;13.358;2023-09-30T06:01:23;20.15;;;4.53;;
41568;SDS011;27283;52.504;13.358;2023-09-30T06:03:56;26.92;;;4.95;;
41568;SDS011;27283;52.504;13.358;2023-09-30T06:06:29;20.13;;;4.85;;
41568;SDS011;27283;52.504;13.358;2023-09-30T06:09:01;21.65;;;4.57;;
41568;SDS011;27283;52.504;13.358;2023-09-30T06:11:36;22.92;;;4.43;;
41568;SDS011;27283;52.504;13.358;2023-09-30T06:14:10;23.00;;;4.82;;
41568;SDS011;27283;52.504;13.358;2023-09-30T06:16:45;25.52;;;5.63;;
41568;SDS011;27283;52.504;13.358;2023-09-30T06:19:18;17.50;;;4.35;;
41568;SDS011;27283;52.504;13.358;2023-09-30T06:21:50;21.77;;;4.80;;
41568;SDS011;27283;52.504;13.358;2023-09-30T06:24:23;17.17;;;4.90;;
41568;SDS011;27283;52.504;13.358;2023-09-30T06:26:55;21.60;;;5.22;;
41568;SDS011;27283;52.504;13.358;2023-09-30T06:29:28;18.55;;;4.65;;
41568;SDS011;27283;52.504;13.358;2023-09-30T06:32:15;23.42;;;4.78;;
41568;SDS011;27283;52.504;13.358;2023-09-30T06:34:49;26.60;;;5.30;;
41568;SDS011;27283;52.504;13.358;2023-09-30T06:37:21;20.48;;;4.82;;
41568;SDS011;27283;52.504;13.358;2023-09-30T06:39:55;19.30;;;4.82;;
41568;SDS011;27283;52.504;13.358;2023-09-30T06:42:29;17.30;;;4.40;;
41568;SDS011;27283;52.504;13.358;2023-09-30T06:45:02;18.65;;;4.70;;
41568;SDS011;27283;52.504;13.358;2023-09-30T06:47:40;21.27;;;4.15;;
41568;SDS011;27283;52.504;13.358;2023-09-30T06:50:14;21.48;;;4.70;;
41568;SDS011;27283;52.504;13.358;2023-09-30T06:52:47;17.25;;;3.97;;
41568;SDS011;27283;52.504;13.358;2023-09-30T06:55:21;28.38;;;4.65;;
41568;SDS011;27283;52.504;13.358;2023-09-30T06:57:55;18.95;;;4.22;;
41568;SDS011;27283;52.504;13.358;2023-09-30T07:00:27;23.15;;;4.50;;
41568;SDS011;27283;52.504;13.358;2023-09-30T07:03:02;19.67;;;3.90;;
41568;SDS011;27283;52.504;13.358;2023-09-30T07:05:39;17.10;;;4.68;;
41568;SDS011;27283;52.504;13.358;2023-09-30T07:08:18;24.15;;;4.40;;
41568;SDS011;27283;52.504;13.358;2023-09-30T07:10:50;16.55;;;4.28;;
41568;SDS011;27283;52.504;13.358;2023-09-30T07:13:23;25.98;;;4.32;;
41568;SDS011;27283;52.504;13.358;2023-09-30T07:15:55;17.50;;;4.40;;
41568;SDS011;27283;52.504;13.358;2023-09-30T07:18:37;16.27;;;4.63;;
41568;SDS011;27283;52.504;13.358;2023-09-30T07:21:10;17.85;;;4.10;;
41568;SDS011;27283;52.504;13.358;2023-09-30T07:23:44;20.58;;;4.45;;
41568;SDS011;27283;52.504;13.358;2023-09-30T07:26:18;18.85;;;3.97;;
41568;SDS011;27283;52.504;13.358;2023-09-30T07:29:03;26.83;;;4.53;;
41568;SDS011;27283;52.504;13.358;2023-09-30T07:35:04;21.83;;;4.78;;
41568;SDS011;27283;52.504;13.358;2023-09-30T07:37:49;18.40;;;4.50;;
41568;SDS011;27283;52.504;13.358;2023-09-30T07:40:21;23.77;;;4.70;;
41568;SDS011;27283;52.504;13.358;2023-09-30T07:42:53;23.52;;;4.50;;
41568;SDS011;27283;52.504;13.358;2023-09-30T07:45:25;25.90;;;4.43;;
41568;SDS011;27283;52.504;13.358;2023-09-30T07:47:58;20.35;;;4.15;;
41568;SDS011;27283;52.504;13.358;2023-09-30T07:50:39;18.75;;;4.00;;
41568;SDS011;27283;52.504;13.358;2023-09-30T07:53:15;25.48;;;3.78;;
41568;SDS011;27283;52.504;13.358;2023-09-30T07:55:47;21.63;;;4.50;;
41568;SDS011;27283;52.504;13.358;2023-09-30T07:58:20;17.33;;;4.00;;
41568;SDS011;27283;52.504;13.358;2023-09-30T08:00:55;14.43;;;3.92;;
41568;SDS011;27283;52.504;13.358;2023-09-30T08:03:40;20.90;;;4.13;;
41568;SDS011;27283;52.504;13.358;2023-09-30T08:06:17;21.42;;;4.03;;
41568;SDS011;27283;52.504;13.358;2023-09-30T08:09:01;22.27;;;4.20;;
41568;SDS011;27283;52.504;13.358;2023-09-30T08:12:03;20.88;;;4.32;;
41568;SDS011;27283;52.504;13.358;2023-09-30T08:14:42;20.23;;;4.07;;
41568;SDS011;27283;52.504;13.358;2023-09-30T08:17:14;22.42;;;4.38;;
41568;SDS011;27283;52.504;13.358;2023-09-30T08:19:47;20.45;;;3.90;;
41568;SDS011;27283;52.504;13.358;2023-09-30T08:22:26;16.98;;;3.85;;
41568;SDS011;27283;52.504;13.358;2023-09-30T08:24:59;21.52;;;4.43;;
41568;SDS011;27283;52.504;13.358;2023-09-30T08:27:30;19.52;;;3.97;;
41568;SDS011;27283;52.504;13.358;2023-09-30T08:30:03;15.63;;;3.63;;
41568;SDS011;27283;52.504;13.358;2023-09-30T08:32:43;15.52;;;3.47;;
41568;SDS011;27283;52.504;13.358;2023-09-30T08:35:18;19.90;;;3.70;;
41568;SDS011;27283;52.504;13.358;2023-09-30T08:37:58;15.88;;;3.50;;
41568;SDS011;27283;52.504;13.358;2023-09-30T08:40:41;23.63;;;3.88;;
41568;SDS011;27283;52.504;13.358;2023-09-30T08:43:38;18.65;;;3.85;;
41568;SDS011;27283;52.504;13.358;2023-09-30T08:46:32;18.85;;;3.75;;
41568;SDS011;27283;52.504;13.358;2023-09-30T08:49:07;20.40;;;3.65;;
41568;SDS011;27283;52.504;13.358;2023-09-30T08:51:48;10.43;;;3.35;;
41568;SDS011;27283;52.504;13.358;2023-09-30T08:54:29;15.52;;;3.45;;
41568;SDS011;27283;52.504;13.358;2023-09-30T08:57:08;18.75;;;3.88;;
41568;SDS011;27283;52.504;13.358;2023-09-30T08:59:51;19.10;;;3.85;;
41568;SDS011;27283;52.504;13.358;2023-09-30T09:02:33;21.15;;;4.03;;
41568;SDS011;27283;52.504;13.358;2023-09-30T09:05:50;18.02;;;3.60;;
41568;SDS011;27283;52.504;13.358;2023-09-30T09:09:31;19.45;;;3.75;;
41568;SDS011;27283;52.504;13.358;2023-09-30T09:12:38;19.67;;;4.30;;
41568;SDS011;27283;52.504;13.358;2023-09-30T09:16:10;17.92;;;4.53;;
41568;SDS011;27283;52.504;13.358;2023-09-30T09:18:53;18.30;;;3.42;;
41568;SDS011;27283;52.504;13.358;2023-09-30T09:21:35;15.02;;;2.90;;
41568;SDS011;27283;52.504;13.358;2023-09-30T09:24:07;21.30;;;3.55;;
41568;SDS011;27283;52.504;13.358;2023-09-30T09:26:51;17.02;;;3.42;;
41568;SDS011;27283;52.504;13.358;2023-09-30T09:29:24;19.52;;;3.75;;
41568;SDS011;27283;52.504;13.358;2023-09-30T09:32:09;17.02;;;3.15;;
41568;SDS011;27283;52.504;13.358;2023-09-30T09:34:59;12.18;;;3.00;;
41568;SDS011;27283;52.504;13.358;2023-09-30T09:38:07;13.00;;;2.90;;
41568;SDS011;27283;52.504;13.358;2023-09-30T09:40:50;12.60;;;2.92;;
41568;SDS011;27283;52.504;13.358;2023-09-30T09:43:34;17.17;;;2.97;;
41568;SDS011;27283;52.504;13.358;2023-09-30T09:46:16;12.30;;;3.05;;
41568;SDS011;27283;52.504;13.358;2023-09-30T09:48:49;16.83;;;3.35;;
41568;SDS011;27283;52.504;13.358;2023-09-30T09:51:27;16.80;;;3.20;;
41568;SDS011;27283;52.504;13.358;2023-09-30T09:54:01;17.52;;;3.30;;
41568;SDS011;27283;52.504;13.358;2023-09-30T09:57:01;18.48;;;3.25;;
41568;SDS011;27283;52.504;13.358;2023-09-30T09:59:39;16.02;;;3.20;;
41568;SDS011;27283;52.504;13.358;2023-09-30T10:02:16;16.25;;;3.05;;
41568;SDS011;27283;52.504;13.358;2023-09-30T10:04:53;13.65;;;3.08;;
41568;SDS011;27283;52.504;13.358;2023-09-30T10:07:54;13.88;;;3.30;;
41568;SDS011;27283;52.504;13.358;2023-09-30T10:10:56;11.98;;;3.17;;
41568;SDS011;27283;52.504;13.358;2023-09-30T10:13:54;12.80;;;2.58;;
41568;SDS011;27283;52.504;13.358;2023-09-30T10:16:56;13.60;;;2.67;;
41568;SDS011;27283;52.504;13.358;2023-09-30T10:19:30;10.52;;;2.72;;
41568;SDS011;27283;52.504;13.358;2023-09-30T10:22:44;13.02;;;2.58;;
41568;SDS011;27283;52.504;13.358;2023-09-30T10:25:41;14.65;;;2.80;;
41568;SDS011;27283;52.504;13.358;2023-09-30T10:28:40;13.55;;;2.92;;
41568;SDS011;27283;52.504;13.358;2023-09-30T10:31:52;15.68;;;3.25;;
41568;SDS011;27283;52.504;13.358;2023-09-30T10:34:48;18.38;;;2.70;;
41568;SDS011;27283;52.504;13.358;2023-09-30T10:37:44;11.82;;;2.40;;
41568;SDS011;27283;52.504;13.358;2023-09-30T10:40:56;12.23;;;2.55;;
41568;SDS011;27283;52.504;13.358;2023-09-30T10:53:29;12.73;;;2.40;;
41568;SDS011;27283;52.504;13.358;2023-09-30T10:56:17;15.85;;;2.70;;
41568;SDS011;27283;52.504;13.358;2023-09-30T10:58:56;15.45;;;2.80;;
41568;SDS011;27283;52.504;13.358;2023-09-30T11:01:43;12.98;;;2.63;;
41568;SDS011;27283;52.504;13.358;2023-09-30T11:04:27;13.75;;;2.30;;
41568;SDS011;27283;52.504;13.358;2023-09-30T11:07:28;12.10;;;2.47;;
41568;SDS011;27283;52.504;13.358;2023-09-30T11:10:05;13.63;;;2.60;;
41568;SDS011;27283;52.504;13.358;2023-09-30T11:13:38;12.45;;;2.53;;
41568;SDS011;27283;52.504;13.358;2023-09-30T11:16:16;15.48;;;2.70;;
41568;SDS011;27283;52.504;13.358;2023-09-30T11:19:11;15.63;;;2.85;;
41568;SDS011;27283;52.504;13.358;2023-09-30T11:22:13;14.55;;;2.50;;
41568;SDS011;27283;52.504;13.358;2023-09-30T11:24:50;14.50;;;2.70;;
41568;SDS011;27283;52.504;13.358;2023-09-30T11:27:28;12.00;;;2.40;;
41568;SDS011;27283;52.504;13.358;2023-09-30T11:34:16;17.70;;;2.95;;
41568;SDS011;27283;52.504;13.358;2023-09-30T11:37:09;11.50;;;2.58;;
41568;SDS011;27283;52.504;13.358;2023-09-30T11:39:52;15.73;;;2.80;;
41568;SDS011;27283;52.504;13.358;2023-09-30T11:42:31;8.80;;;2.28;;
41568;SDS011;27283;52.504;13.358;2023-09-30T11:45:25;15.13;;;3.15;;
41568;SDS011;27283;52.504;13.358;2023-09-30T11:48:16;12.60;;;2.85;;
41568;SDS011;27283;52.504;13.358;2023-09-30T11:51:03;11.93;;;2.00;;
41568;SDS011;27283;52.504;13.358;2023-09-30T11:53:38;8.18;;;2.20;;
41568;SDS011;27283;52.504;13.358;2023-09-30T11:56:13;9.15;;;1.98;;
41568;SDS011;27283;52.504;13.358;2023-09-30T11:58:47;7.88;;;1.95;;
41568;SDS011;27283;52.504;13.358;2023-09-30T12:01:19;9.38;;;2.05;;
41568;SDS011;27283;52.504;13.358;2023-09-30T12:03:54;13.02;;;2.58;;
41568;SDS011;27283;52.504;13.358;2023-09-30T12:06:27;7.97;;;1.90;;
41568;SDS011;27283;52.504;13.358;2023-09-30T12:09:00;14.05;;;2.33;;
41568;SDS011;27283;52.504;13.358;2023-09-30T12:11:47;15.57;;;2.50;;
41568;SDS011;27283;52.504;13.358;2023-09-30T12:14:35;12.05;;;2.15;;
41568;SDS011;27283;52.504;13.358;2023-09-30T12:17:13;11.20;;;2.50;;
41568;SDS011;27283;52.504;13.358;2023-09-30T12:19:50;11.73;;;2.55;;
41568;SDS011;27283;52.504;13.358;2023-09-30T12:22:27;12.50;;;2.35;;
41568;SDS011;27283;52.504;13.358;2023-09-30T12:25:00;8.90;;;2.35;;
41568;SDS011;27283;52.504;13.358;2023-09-30T12:27:39;12.07;;;2.60;;
41568;SDS011;27283;52.504;13.358;2023-09-30T12:30:14;11.57;;;2.03;;
41568;SDS011;27283;52.504;13.358;2023-09-30T12:32:50;8.43;;;2.25;;
41568;SDS011;27283;52.504;13.358;2023-09-30T12:35:23;14.98;;;2.10;;
41568;SDS011;27283;52.504;13.358;2023-09-30T12:37:55;6.75;;;1.90;;
41568;SDS011;27283;52.504;13.358;2023-09-30T12:40:28;10.70;;;2.08;;
41568;SDS011;27283;52.504;13.358;2023-09-30T12:43:09;8.10;;;1.80;;
41568;SDS011;27283;52.504;13.358;2023-09-30T12:45:41;7.10;;;1.83;;
41568;SDS011;27283;52.504;13.358;2023-09-30T12:48:14;9.90;;;2.10;;
41568;SDS011;27283;52.504;13.358;2023-09-30T12:50:49;9.48;;;1.98;;
41568;SDS011;27283;52.504;13.358;2023-09-30T12:53:24;9.10;;;2.08;;
41568;SDS011;27283;52.504;13.358;2023-09-30T12:55:56;7.20;;;1.70;;
41568;SDS011;27283;52.504;13.358;2023-09-30T12:58:31;10.43;;;2.20;;
41568;SDS011;27283;52.504;13.358;2023-09-30T13:01:07;10.07;;;2.20;;
41568;SDS011;27283;52.504;13.358;2023-09-30T13:03:50;5.90;;;1.80;;
41568;SDS011;27283;52.504;13.358;2023-09-30T13:06:22;10.48;;;2.30;;
41568;SDS011;27283;52.504;13.358;2023-09-30T13:08:57;8.45;;;2.00;;
41568;SDS011;27283;52.504;13.358;2023-09-30T13:11:33;7.60;;;1.67;;
41568;SDS011;27283;52.504;13.358;2023-09-30T13:14:09;8.70;;;1.63;;
41568;SDS011;27283;52.504;13.358;2023-09-30T13:16:43;9.40;;;1.85;;
41568;SDS011;27283;52.504;13.358;2023-09-30T13:19:18;7.28;;;1.95;;
41568;SDS011;27283;52.504;13.358;2023-09-30T13:21:51;8.82;;;2.30;;
41568;SDS011;27283;52.504;13.358;2023-09-30T13:24:25;12.25;;;2.17;;
41568;SDS011;27283;52.504;13.358;2023-09-30T13:26:59;9.07;;;1.58;;
41568;SDS011;27283;52.504;13.358;2023-09-30T13:29:44;8.77;;;1.83;;
41568;SDS011;27283;52.504;13.358;2023-09-30T13:32:17;10.15;;;2.22;;
41568;SDS011;27283;52.504;13.358;2023-09-30T13:35:08;7.03;;;1.80;;
41568;SDS011;27283;52.504;13.358;2023-09-30T13:37:40;11.05;;;2.20;;
41568;SDS011;27283;52.504;13.358;2023-09-30T13:40:14;8.07;;;1.60;;
41568;SDS011;27283;52.504;13.358;2023-09-30T13:42:56;10.25;;;2.17;;
41568;SDS011;27283;52.504;13.358;2023-09-30T13:45:35;11.93;;;2.10;;
41568;SDS011;27283;52.504;13.358;2023-09-30T13:48:08;8.25;;;1.63;;
41568;SDS011;27283;52.504;13.358;2023-09-30T13:50:42;7.65;;;2.17;;
41568;SDS011;27283;52.504;13.358;2023-09-30T13:53:18;10.55;;;2.10;;
41568;SDS011;27283;52.504;13.358;2023-09-30T13:55:51;6.03;;;1.80;;
41568;SDS011;27283;52.504;13.358;2023-09-30T13:58:26;6.03;;;1.60;;
41568;SDS011;27283;52.504;13.358;2023-09-30T14:01:06;12.23;;;2.00;;
41568;SDS011;27283;52.504;13.358;2023-09-30T14:03:42;10.05;;;2.13;;
41568;SDS011;27283;52.504;13.358;2023-09-30T14:06:19;8.55;;;2.13;;
41568;SDS011;27283;52.504;13.358;2023-09-30T14:08:54;12.88;;;1.90;;
41568;SDS011;27283;52.504;13.358;2023-09-30T14:11:29;7.57;;;1.67;;
41568;SDS011;27283;52.504;13.358;2023-09-30T14:14:06;9.57;;;1.70;;
41568;SDS011;27283;52.504;13.358;2023-09-30T14:16:43;9.18;;;1.88;;
41568;SDS011;27283;52.504;13.358;2023-09-30T14:19:19;6.80;;;1.70;;
41568;SDS011;27283;52.504;13.358;2023-09-30T14:21:54;5.38;;;1.70;;
41568;SDS011;27283;52.504;13.358;2023-09-30T14:24:27;10.02;;;2.08;;
41568;SDS011;27283;52.504;13.358;2023-09-30T14:27:03;7.90;;;2.20;;
41568;SDS011;27283;52.504;13.358;2023-09-30T14:29:37;10.05;;;2.17;;
41568;SDS011;27283;52.504;13.358;2023-09-30T14:32:17;10.07;;;2.00;;
41568;SDS011;27283;52.504;13.358;2023-09-30T14:34:56;8.27;;;1.65;;
41568;SDS011;27283;52.504;13.358;2023-09-30T14:37:29;11.23;;;2.15;;
41568;SDS011;27283;52.504;13.358;2023-09-30T14:40:02;11.93;;;2.35;;
41568;SDS011;27283;52.504;13.358;2023-09-30T14:42:40;12.55;;;2.28;;
41568;SDS011;27283;52.504;13.358;2023-09-30T14:48:17;11.18;;;2.78;;
41568;SDS011;27283;52.504;13.358;2023-09-30T14:50:51;8.02;;;2.03;;
41568;SDS011;27283;52.504;13.358;2023-09-30T14:53:24;7.80;;;1.85;;
41568;SDS011;27283;52.504;13.358;2023-09-30T14:55:57;10.00;;;1.90;;
41568;SDS011;27283;52.504;13.358;2023-09-30T14:58:35;9.18;;;2.20;;
41568;SDS011;27283;52.504;13.358;2023-09-30T15:01:11;5.32;;;2.00;;
41568;SDS011;27283;52.504;13.358;2023-09-30T15:03:56;7.95;;;1.80;;
41568;SDS011;27283;52.504;13.358;2023-09-30T15:06:28;9.05;;;2.00;;
41568;SDS011;27283;52.504;13.358;2023-09-30T15:09:03;7.40;;;1.77;;
41568;SDS011;27283;52.504;13.358;2023-09-30T15:11:39;9.55;;;2.25;;
41568;SDS011;27283;52.504;13.358;2023-09-30T15:14:11;6.03;;;1.88;;
41568;SDS011;27283;52.504;13.358;2023-09-30T15:16:44;9.13;;;1.83;;
41568;SDS011;27283;52.504;13.358;2023-09-30T15:19:22;8.00;;;2.20;;
41568;SDS011;27283;52.504;13.358;2023-09-30T15:22:29;9.10;;;1.65;;
41568;SDS011;27283;52.504;13.358;2023-09-30T15:25:46;7.43;;;1.75;;
41568;SDS011;27283;52.504;13.358;2023-09-30T15:32:44;25.95;;;10.73;;
41568;SDS011;27283;52.504;13.358;2023-09-30T15:35:19;11.68;;;2.72;;
41568;SDS011;27283;52.504;13.358;2023-09-30T15:37:53;10.00;;;1.80;;
41568;SDS011;27283;52.504;13.358;2023-09-30T15:40:28;5.95;;;1.77;;
41568;SDS011;27283;52.504;13.358;2023-09-30T15:45:16;6.90;;;2.00;;
41568;SDS011;27283;52.504;13.358;2023-09-30T15:47:12;10.27;;;2.10;;
41568;SDS011;27283;52.504;13.358;2023-09-30T15:53:20;10.32;;;1.95;;
41568;SDS011;27283;52.504;13.358;2023-09-30T15:56:11;7.70;;;2.22;;
41568;SDS011;27283;52.504;13.358;2023-09-30T15:58:44;9.77;;;2.00;;